Luis Gomes, Brazil
Current Conditions -  °F | °C
As of 9:00 AM on Thursday 23 Oct 2014 (Local Time) from SBJU Reporting Station
Broken Clouds Broken Clouds  
Wind Chill: 82°   Ceiling: 2100
Heat Index: 86°   Visibility: 6mi
Dew Point: 70°   Wind: 8mph
Humidity: 66%   Direction: 140°SE
Pressure: 30.09"   Gusts: NA
Location:  6.41°S, 38.39°W
Report Text: SBJU 231200Z 14007KT 9999 BKN021 28/21 Q1019
Loading
Personal Weather Stations






























Interactive Weather Map
Tropical Storm Tracking
New forecast layout! Learn more

10-Day Weather Forecast

Advertisements
Track Severe Weather on mobile